American Integrity — WDD2875 — position and weather

sailwx.info

Track history (hours):
 
Tides and Currents Weather Stations Pressure Air Temp Water Temp Dewpoint Dewpoint Depression Visibility Wind Speed Wind Dir Waves Ship Positions

American Integrity

Owner: American Steamship Company, Williamsville, NY. More information available from US FCC via Universal Licensing System and Coast Guard Vessel Documentation Center.

Last reported at 2015-Sep-01 05:16 UTC. Time now 2015-Sep-01 18:12 UTC.
Position N 47°24' W 087°16'.

; draft 8 m.

Type: Cargo ship. MMSI: 367120990.

Date/timePositionNaut miles runAvg speedWind from/ knotsBaromVisibWave heightAir tempDewpointWater temp
2015-Sep-01 05:16N 47°24' W 087°16'912.2
2015-Sep-01 04:33N 47°21' W 087°04'1212.4
2015-Sep-01 03:33N 47°16' W 086°47'1413.6
2015-Sep-01 02:33N 47°11' W 086°28'1313.3
2015-Sep-01 01:33N 47°07' W 086°10'1211.5
2015-Sep-01 00:33N 47°03' W 085°54'1111.3
2015-Aug-31 23:34N 46°59' W 085°39'1211.9
2015-Aug-31 22:34N 46°54' W 085°22'1413.5
2015-Aug-31 21:33N 46°49' W 085°04'1313.2
2015-Aug-31 20:33N 46°40' W 084°50'1311.8
2015-Aug-31 19:26N 46°30' W 084°37'7 7.6
2015-Aug-31 18:33N 46°28' W 084°28'5 2.6
2015-Aug-31 16:29N 46°30' W 084°20'3 2.9
2015-Aug-31 15:34N 46°28' W 084°17'8 7.3
2015-Aug-31 14:29N 46°21' W 084°12'9 7.1
2015-Aug-31 13:09N 46°13' W 084°07'16 9.4
2015-Aug-31 11:30N 46°00' W 083°53'1111.3
2015-Aug-31 10:34N 45°50' W 083°48'3012.4
2015-Aug-31 08:11N 45°26' W 083°24'711.2
2015-Aug-31 07:33N 45°20' W 083°19'  
2015-Aug-28 17:00N 44°18' W 082°24'7720.5 220 / 211020.610.8 1.018.3
2015-Aug-28 13:14N 45°27' W 083°14'1311.2
2015-Aug-28 12:05N 45°36' W 083°26'1011.9
2015-Aug-28 11:13N 45°44' W 083°36'1011.6
2015-Aug-28 10:23N 45°51' W 083°46'911.2
2015-Aug-28 09:33N 45°58' W 083°54'9 8.4
2015-Aug-28 08:27N 46°06' W 084°01'10 7.9
2015-Aug-28 07:14N 46°13' W 084°10'7 5.9
2015-Aug-28 06:05N 46°20' W 084°13'4 6.6
2015-Aug-28 05:33N 46°23' W 084°14'10 3.3
2015-Aug-28 02:26N 46°29' W 084°26'5 6.2
2015-Aug-28 01:33N 46°28' W 084°34'1010.1
2015-Aug-28 00:33N 46°36' W 084°44'1811.8
2015-Aug-27 23:04N 46°49' W 085°00'1112.7
2015-Aug-27 22:11N 46°54' W 085°15'8 9.9
2015-Aug-27 21:24N 46°57' W 085°26'29 6.6
2015-Aug-27 17:00N 47°06' W 086°06'23311.4 160 / 81019.210.8 0.513.3
2015-Aug-26 20:33N 46°53' W 091°47'1211.7
2015-Aug-26 19:33N 46°48' W 092°02'4 4.2
2015-Aug-26 18:33N 46°45' W 092°07'0 0.3
2015-Aug-26 17:33N 46°45' W 092°07'0 0.0
2015-Aug-26 16:33N 46°45' W 092°07'0 0.0
2015-Aug-26 15:33N 46°45' W 092°07'0 0.0
2015-Aug-26 14:33N 46°45' W 092°07'0 0.0
2015-Aug-26 13:33N 46°45' W 092°07'0 0.0
2015-Aug-26 12:33N 46°45' W 092°07'0 0.0
2015-Aug-26 11:33N 46°45' W 092°07'0 0.0
2015-Aug-26 10:33N 46°45' W 092°07'0 0.0
2015-Aug-26 09:33N 46°45' W 092°07'0 0.0
2015-Aug-26 08:33N 46°45' W 092°07'1 0.5
2015-Aug-26 07:33N 46°45' W 092°06'3 3.4
2015-Aug-26 06:33N 46°48' W 092°03'1212.0
2015-Aug-26 05:33N 46°52' W 091°47'324 9.3
2015-Aug-24 18:32N 46°07' W 084°01'9 9.1
2015-Aug-24 17:32N 46°00' W 083°53'  
2015-Aug-22 08:09N 45°46' W 083°39'711.0
2015-Aug-22 07:33N 45°51' W 083°46'1110.8
2015-Aug-22 06:33N 46°00' W 083°54'9 9.1
2015-Aug-22 05:33N 46°08' W 084°01'  
Track history (hours):
 
Tides and Currents Weather Stations Pressure Air Temp Water Temp Dewpoint Dewpoint Depression Visibility Wind Speed Wind Dir Waves Ship Positions

American Integrity

Owner: American Steamship Company, Williamsville, NY. More information available from US FCC via Universal Licensing System and Coast Guard Vessel Documentation Center.

Last reported at 2015-Sep-01 05:16 UTC. Time now 2015-Sep-01 18:12 UTC.
Position N 47°24' W 087°16'.

; draft 8 m.

Type: Cargo ship. MMSI: 367120990.

Date/timePositionNaut miles runAvg speedWind from/ knotsBaromVisibWave heightAir tempDewpointWater temp
2015-Sep-01 05:16N 47°24' W 087°16'912.2
2015-Sep-01 04:33N 47°21' W 087°04'1212.4
2015-Sep-01 03:33N 47°16' W 086°47'1413.6
2015-Sep-01 02:33N 47°11' W 086°28'1313.3
2015-Sep-01 01:33N 47°07' W 086°10'1211.5
2015-Sep-01 00:33N 47°03' W 085°54'1111.3
2015-Aug-31 23:34N 46°59' W 085°39'1211.9
2015-Aug-31 22:34N 46°54' W 085°22'1413.5
2015-Aug-31 21:33N 46°49' W 085°04'1313.2
2015-Aug-31 20:33N 46°40' W 084°50'1311.8
2015-Aug-31 19:26N 46°30' W 084°37'7 7.6
2015-Aug-31 18:33N 46°28' W 084°28'5 2.6
2015-Aug-31 16:29N 46°30' W 084°20'3 2.9
2015-Aug-31 15:34N 46°28' W 084°17'8 7.3
2015-Aug-31 14:29N 46°21' W 084°12'9 7.1
2015-Aug-31 13:09N 46°13' W 084°07'16 9.4
2015-Aug-31 11:30N 46°00' W 083°53'1111.3
2015-Aug-31 10:34N 45°50' W 083°48'3012.4
2015-Aug-31 08:11N 45°26' W 083°24'711.2
2015-Aug-31 07:33N 45°20' W 083°19'  
2015-Aug-28 17:00N 44°18' W 082°24'7720.5 220 / 211020.610.8 1.018.3
2015-Aug-28 13:14N 45°27' W 083°14'1311.2
2015-Aug-28 12:05N 45°36' W 083°26'1011.9
2015-Aug-28 11:13N 45°44' W 083°36'1011.6
2015-Aug-28 10:23N 45°51' W 083°46'911.2
2015-Aug-28 09:33N 45°58' W 083°54'9 8.4
2015-Aug-28 08:27N 46°06' W 084°01'10 7.9
2015-Aug-28 07:14N 46°13' W 084°10'7 5.9
2015-Aug-28 06:05N 46°20' W 084°13'4 6.6
2015-Aug-28 05:33N 46°23' W 084°14'10 3.3
2015-Aug-28 02:26N 46°29' W 084°26'5 6.2
2015-Aug-28 01:33N 46°28' W 084°34'1010.1
2015-Aug-28 00:33N 46°36' W 084°44'1811.8
2015-Aug-27 23:04N 46°49' W 085°00'1112.7
2015-Aug-27 22:11N 46°54' W 085°15'8 9.9
2015-Aug-27 21:24N 46°57' W 085°26'29 6.6
2015-Aug-27 17:00N 47°06' W 086°06'23311.4 160 / 81019.210.8 0.513.3
2015-Aug-26 20:33N 46°53' W 091°47'1211.7
2015-Aug-26 19:33N 46°48' W 092°02'4 4.2
2015-Aug-26 18:33N 46°45' W 092°07'0 0.3
2015-Aug-26 17:33N 46°45' W 092°07'0 0.0
2015-Aug-26 16:33N 46°45' W 092°07'0 0.0
2015-Aug-26 15:33N 46°45' W 092°07'0 0.0
2015-Aug-26 14:33N 46°45' W 092°07'0 0.0
2015-Aug-26 13:33N 46°45' W 092°07'0 0.0
2015-Aug-26 12:33N 46°45' W 092°07'0 0.0
2015-Aug-26 11:33N 46°45' W 092°07'0 0.0
2015-Aug-26 10:33N 46°45' W 092°07'0 0.0
2015-Aug-26 09:33N 46°45' W 092°07'0 0.0
2015-Aug-26 08:33N 46°45' W 092°07'1 0.5
2015-Aug-26 07:33N 46°45' W 092°06'3 3.4
2015-Aug-26 06:33N 46°48' W 092°03'1212.0
2015-Aug-26 05:33N 46°52' W 091°47'324 9.3
2015-Aug-24 18:32N 46°07' W 084°01'9 9.1
2015-Aug-24 17:32N 46°00' W 083°53'  
2015-Aug-22 08:09N 45°46' W 083°39'711.0
2015-Aug-22 07:33N 45°51' W 083°46'1110.8
2015-Aug-22 06:33N 46°00' W 083°54'9 9.1
2015-Aug-22 05:33N 46°08' W 084°01'  

Dump ship's entire track history